Abington, Connecticut
Current Conditions -  °F | °C
As of 11:52 PM on Wednesday 22 Oct 2014 (Local Time) from KIJD Reporting Station
Light Rain Light Rain  
Wind Chill: 10°   Ceiling: 1800
Heat Index: 10°   Visibility: 7mi
Dew Point:   Wind: 20mph
Humidity: 86%   Direction: 30°NNE
Pressure: 29.76"   Gusts: 29mph
Location:  41.86°N, 72.01°W
Report Text: KIJD 230352Z AUTO 03017G25KT 7SM -RA BKN018 BKN022 OVC060 10/08 A2976 RMK AO2 PK WND 01032/0340 RAE00B05 SLP076 P0002 T01000078
Loading
Personal Weather Stations






























Interactive Weather Map
Tropical Storm Tracking
New forecast layout! Learn more

10-Day Weather Forecast

Advertisements
Track Severe Weather on mobile